Главная страница
METAR-TAF:

METAR-TAF

Аэропорты :

Wheeling - Ohio County Airport

Уилинг, Западная Виргиния, США

широта: 40-10-13N, долгота: 080-38-40W, высота над уровнем моря: 364 м

Текущие метеонаблюдения

Эта сводка был подготовлена 1 час и 1 минут назад, в 11:53 UTC
Ветер 4 Узел от западный
Температура 12°C
Влажность 67%
Давление 1025 hPa
Видимость: 16.1 км
Сплошная облачность на высоте 7500 фута

METAR: KHLG 161153Z AUTO 27004KT 10SM OVC075 12/06 A3026 RMK AO2 SLP248 T01170061 10128 20089 53019

Время: 08:54 (12:54 UTC)

Прогноз

Эта сводка был подготовлена 1 час и 34 минут назад, в 11:20 UTC
Прогноз действительный с 16-го 12 UTC до 17-го 12 UTC
Ветер 4 Узел переменных направлений
Видимость: 10 км
Рассеянная облачность на высоте 8000 фута

TAF: KHLG 161120Z 1612/1712 VRB04KT P6SM BKN080

Метеонаблюдения и прогнозы для более 4000 аэропортов (сводки METAR и TAF).

Имеющиеся станции представлены на карте желтыми и красными точками.

Чтобы увидеть название станции, наведите на нее мышь.

Затем щелкните, чтобы увидеть метеонаблюдения и метеопрогнозы.

Управление картой: чтобы увеличить масштаб, щелкните зеленые кнопки с черным крестиком; чтобы уменьшить масштаб, щелкните зеленую кнопку с тире; для просмотра соседних карт щелкайте зеленые стрелки.


METAR-TAF: